sensor_id;sensor_type;location;lat;lon;timestamp;pressure;altitude;pressure_sealevel;temperature;humidity
21185;BME280;18176;49.502;11.754;2022-12-16T00:02:31;95651.19;;;5.14;50.37
21185;BME280;18176;49.502;11.754;2022-12-16T00:06:34;95665.09;;;5.03;50.52
21185;BME280;18176;49.502;11.754;2022-12-16T00:10:34;95677.81;;;5.29;50.42
21185;BME280;18176;49.502;11.754;2022-12-16T00:14:51;95669.94;;;5.52;49.97
21185;BME280;18176;49.502;11.754;2022-12-16T00:18:51;95656.44;;;5.37;50.07
21185;BME280;18176;49.502;11.754;2022-12-16T00:22:53;95656.69;;;5.47;50.15
21185;BME280;18176;49.502;11.754;2022-12-16T00:26:54;95665.81;;;5.33;50.38
21185;BME280;18176;49.502;11.754;2022-12-16T00:30:55;95641.94;;;5.34;50.07
21185;BME280;18176;49.502;11.754;2022-12-16T00:34:56;95664.69;;;5.63;49.74
21185;BME280;18176;49.502;11.754;2022-12-16T00:38:58;95665.50;;;5.41;50.23
21185;BME280;18176;49.502;11.754;2022-12-16T00:42:58;95657.38;;;5.31;50.80
21185;BME280;18176;49.502;11.754;2022-12-16T00:46:59;95658.50;;;5.12;51.36
21185;BME280;18176;49.502;11.754;2022-12-16T00:50:59;95669.00;;;5.12;51.42
21185;BME280;18176;49.502;11.754;2022-12-16T00:55:01;95664.13;;;5.27;51.20
21185;BME280;18176;49.502;11.754;2022-12-16T00:59:01;95676.09;;;5.34;51.11
21185;BME280;18176;49.502;11.754;2022-12-16T01:03:01;95672.91;;;5.32;51.16
21185;BME280;18176;49.502;11.754;2022-12-16T01:07:02;95676.56;;;5.43;50.96
21185;BME280;18176;49.502;11.754;2022-12-16T01:11:05;95676.31;;;5.33;51.12
21185;BME280;18176;49.502;11.754;2022-12-16T01:15:07;95658.03;;;5.15;51.07
21185;BME280;18176;49.502;11.754;2022-12-16T01:19:09;95687.94;;;5.14;51.54
21185;BME280;18176;49.502;11.754;2022-12-16T01:23:09;95683.03;;;5.06;52.02
21185;BME280;18176;49.502;11.754;2022-12-16T01:27:12;95660.53;;;5.10;51.63
21185;BME280;18176;49.502;11.754;2022-12-16T01:31:15;95669.34;;;5.15;51.48
21185;BME280;18176;49.502;11.754;2022-12-16T01:35:17;95628.47;;;4.96;51.43
21185;BME280;18176;49.502;11.754;2022-12-16T01:39:38;95669.25;;;5.22;51.33
21185;BME280;18176;49.502;11.754;2022-12-16T01:43:43;95678.47;;;5.01;51.68
21185;BME280;18176;49.502;11.754;2022-12-16T01:47:44;95673.66;;;4.98;51.81
21185;BME280;18176;49.502;11.754;2022-12-16T01:51:45;95672.06;;;4.97;51.85
21185;BME280;18176;49.502;11.754;2022-12-16T01:55:54;95669.09;;;5.05;51.63
21185;BME280;18176;49.502;11.754;2022-12-16T02:00:00;95682.84;;;4.77;52.09
21185;BME280;18176;49.502;11.754;2022-12-16T02:04:08;95666.88;;;4.79;51.96
21185;BME280;18176;49.502;11.754;2022-12-16T02:08:13;95686.44;;;4.94;52.12
21185;BME280;18176;49.502;11.754;2022-12-16T02:12:24;95649.78;;;4.76;51.91
21185;BME280;18176;49.502;11.754;2022-12-16T02:16:38;95672.44;;;4.71;52.64
21185;BME280;18176;49.502;11.754;2022-12-16T02:21:17;95652.63;;;4.86;51.95
21185;BME280;18176;49.502;11.754;2022-12-16T02:26:03;95679.44;;;4.88;52.46
21185;BME280;18176;49.502;11.754;2022-12-16T02:30:37;95685.47;;;4.77;52.58
21185;BME280;18176;49.502;11.754;2022-12-16T02:34:50;95688.75;;;4.43;53.46
21185;BME280;18176;49.502;11.754;2022-12-16T02:38:58;95682.56;;;4.56;53.31
21185;BME280;18176;49.502;11.754;2022-12-16T02:43:06;95684.09;;;4.75;52.93
21185;BME280;18176;49.502;11.754;2022-12-16T02:47:10;95689.66;;;4.67;53.25
21185;BME280;18176;49.502;11.754;2022-12-16T02:51:10;95692.28;;;4.67;53.44
21185;BME280;18176;49.502;11.754;2022-12-16T02:55:11;95674.13;;;4.65;53.20
21185;BME280;18176;49.502;11.754;2022-12-16T02:59:23;95693.66;;;4.69;53.62
21185;BME280;18176;49.502;11.754;2022-12-16T03:03:36;95702.16;;;4.53;54.05
21185;BME280;18176;49.502;11.754;2022-12-16T03:07:39;95687.75;;;4.44;54.03
21185;BME280;18176;49.502;11.754;2022-12-16T03:11:44;95697.47;;;4.55;53.76
21185;BME280;18176;49.502;11.754;2022-12-16T03:15:46;95698.06;;;4.57;53.96
21185;BME280;18176;49.502;11.754;2022-12-16T03:20:07;95707.66;;;4.63;53.75
21185;BME280;18176;49.502;11.754;2022-12-16T03:24:12;95713.38;;;4.60;53.74
21185;BME280;18176;49.502;11.754;2022-12-16T03:28:29;95714.19;;;4.72;53.65
21185;BME280;18176;49.502;11.754;2022-12-16T03:32:37;95723.84;;;4.90;53.18
21185;BME280;18176;49.502;11.754;2022-12-16T03:36:43;95720.72;;;4.81;53.17
21185;BME280;18176;49.502;11.754;2022-12-16T03:40:48;95716.19;;;4.88;52.86
21185;BME280;18176;49.502;11.754;2022-12-16T03:44:51;95728.66;;;5.05;52.77
21185;BME280;18176;49.502;11.754;2022-12-16T03:48:51;95736.66;;;5.10;52.65
21185;BME280;18176;49.502;11.754;2022-12-16T03:52:55;95718.50;;;4.96;52.88
21185;BME280;18176;49.502;11.754;2022-12-16T03:56:55;95740.91;;;5.11;52.73
21185;BME280;18176;49.502;11.754;2022-12-16T04:00:55;95731.81;;;4.83;52.81
21185;BME280;18176;49.502;11.754;2022-12-16T04:04:56;95727.13;;;4.56;53.61
21185;BME280;18176;49.502;11.754;2022-12-16T04:08:59;95723.94;;;4.83;53.58
21185;BME280;18176;49.502;11.754;2022-12-16T04:12:59;95698.59;;;4.77;53.50
21185;BME280;18176;49.502;11.754;2022-12-16T04:17:12;95741.56;;;4.94;53.52
21185;BME280;18176;49.502;11.754;2022-12-16T04:21:26;95740.75;;;4.94;53.75
21185;BME280;18176;49.502;11.754;2022-12-16T04:25:41;95758.78;;;5.02;53.52
21185;BME280;18176;49.502;11.754;2022-12-16T04:29:42;95752.78;;;5.13;53.11
21185;BME280;18176;49.502;11.754;2022-12-16T04:33:55;95718.66;;;4.72;53.56
21185;BME280;18176;49.502;11.754;2022-12-16T04:38:08;95756.84;;;4.97;53.63
21185;BME280;18176;49.502;11.754;2022-12-16T04:42:23;95751.50;;;5.04;53.40
21185;BME280;18176;49.502;11.754;2022-12-16T04:46:36;95767.31;;;4.97;53.57
21185;BME280;18176;49.502;11.754;2022-12-16T04:50:48;95766.63;;;4.90;53.50
21185;BME280;18176;49.502;11.754;2022-12-16T04:55:01;95772.47;;;4.74;53.96
21185;BME280;18176;49.502;11.754;2022-12-16T04:59:16;95783.97;;;4.91;53.66
21185;BME280;18176;49.502;11.754;2022-12-16T05:03:30;95775.72;;;4.76;53.75
21185;BME280;18176;49.502;11.754;2022-12-16T05:07:43;95794.38;;;4.98;53.36
21185;BME280;18176;49.502;11.754;2022-12-16T05:11:55;95798.28;;;4.77;53.42
21185;BME280;18176;49.502;11.754;2022-12-16T05:16:11;95803.91;;;4.81;53.58
21185;BME280;18176;49.502;11.754;2022-12-16T05:20:23;95801.78;;;4.89;53.16
21185;BME280;18176;49.502;11.754;2022-12-16T05:24:36;95803.72;;;4.94;53.28
21185;BME280;18176;49.502;11.754;2022-12-16T05:28:49;95819.00;;;4.85;53.84
21185;BME280;18176;49.502;11.754;2022-12-16T05:33:04;95816.41;;;4.97;53.64
21185;BME280;18176;49.502;11.754;2022-12-16T05:37:17;95812.56;;;5.00;53.22
21185;BME280;18176;49.502;11.754;2022-12-16T05:41:30;95815.03;;;4.94;53.59
21185;BME280;18176;49.502;11.754;2022-12-16T05:45:42;95814.56;;;4.97;53.40
21185;BME280;18176;49.502;11.754;2022-12-16T05:49:58;95822.16;;;5.06;53.32
21185;BME280;18176;49.502;11.754;2022-12-16T05:54:12;95799.00;;;5.14;52.69
21185;BME280;18176;49.502;11.754;2022-12-16T05:58:25;95817.44;;;5.26;52.84
21185;BME280;18176;49.502;11.754;2022-12-16T06:02:37;95825.88;;;5.28;52.67
21185;BME280;18176;49.502;11.754;2022-12-16T06:06:53;95827.22;;;5.19;52.91
21185;BME280;18176;49.502;11.754;2022-12-16T06:11:06;95836.13;;;5.18;53.06
21185;BME280;18176;49.502;11.754;2022-12-16T06:15:19;95836.34;;;5.16;52.88
21185;BME280;18176;49.502;11.754;2022-12-16T06:19:31;95836.22;;;5.41;52.72
21185;BME280;18176;49.502;11.754;2022-12-16T06:23:46;95856.06;;;5.37;52.69
21185;BME280;18176;49.502;11.754;2022-12-16T06:27:59;95865.28;;;5.28;52.62
21185;BME280;18176;49.502;11.754;2022-12-16T06:32:12;95880.19;;;5.16;53.01
21185;BME280;18176;49.502;11.754;2022-12-16T06:36:24;95873.31;;;5.15;52.86
21185;BME280;18176;49.502;11.754;2022-12-16T06:40:40;95871.00;;;5.07;53.26
21185;BME280;18176;49.502;11.754;2022-12-16T06:44:52;95892.72;;;5.14;53.22
21185;BME280;18176;49.502;11.754;2022-12-16T06:49:05;95904.03;;;5.14;53.34
21185;BME280;18176;49.502;11.754;2022-12-16T06:53:17;95909.16;;;4.91;53.83
21185;BME280;18176;49.502;11.754;2022-12-16T06:57:33;95908.63;;;5.01;54.02
21185;BME280;18176;49.502;11.754;2022-12-16T07:01:46;95899.75;;;5.02;53.70
21185;BME280;18176;49.502;11.754;2022-12-16T07:06:00;95863.53;;;4.92;53.86
21185;BME280;18176;49.502;11.754;2022-12-16T07:10:13;95867.06;;;4.97;53.75
21185;BME280;18176;49.502;11.754;2022-12-16T07:14:28;95908.75;;;5.24;53.54
21185;BME280;18176;49.502;11.754;2022-12-16T07:18:40;95909.63;;;5.36;53.56
21185;BME280;18176;49.502;11.754;2022-12-16T07:22:53;95917.22;;;5.55;53.24
21185;BME280;18176;49.502;11.754;2022-12-16T07:27:15;95918.47;;;5.53;53.62
21185;BME280;18176;49.502;11.754;2022-12-16T07:31:30;95887.13;;;5.40;53.38
21185;BME280;18176;49.502;11.754;2022-12-16T07:35:43;95931.66;;;5.64;53.53
21185;BME280;18176;49.502;11.754;2022-12-16T07:39:56;95941.38;;;5.64;53.51
21185;BME280;18176;49.502;11.754;2022-12-16T07:44:08;95952.34;;;5.61;53.66
21185;BME280;18176;49.502;11.754;2022-12-16T07:48:24;95949.75;;;5.73;53.45
21185;BME280;18176;49.502;11.754;2022-12-16T07:52:36;95959.44;;;5.72;53.49
21185;BME280;18176;49.502;11.754;2022-12-16T07:56:51;95959.78;;;5.64;53.67
21185;BME280;18176;49.502;11.754;2022-12-16T08:01:04;95972.69;;;5.65;53.59
21185;BME280;18176;49.502;11.754;2022-12-16T08:05:20;95977.72;;;5.67;53.95
21185;BME280;18176;49.502;11.754;2022-12-16T08:09:32;95989.97;;;5.91;53.38
21185;BME280;18176;49.502;11.754;2022-12-16T08:13:45;95878.59;;;5.44;53.23
21185;BME280;18176;49.502;11.754;2022-12-16T08:17:57;95996.88;;;6.15;53.02
21185;BME280;18176;49.502;11.754;2022-12-16T08:22:13;95983.19;;;6.25;52.92
21185;BME280;18176;49.502;11.754;2022-12-16T08:26:25;96006.25;;;6.76;52.03
21185;BME280;18176;49.502;11.754;2022-12-16T08:30:38;96017.72;;;6.93;51.73
21185;BME280;18176;49.502;11.754;2022-12-16T08:34:51;95990.91;;;6.73;51.38
21185;BME280;18176;49.502;11.754;2022-12-16T08:39:07;96020.56;;;7.03;51.09
21185;BME280;18176;49.502;11.754;2022-12-16T08:43:19;96020.34;;;6.93;51.32
21185;BME280;18176;49.502;11.754;2022-12-16T08:47:41;96033.84;;;7.08;50.76
21185;BME280;18176;49.502;11.754;2022-12-16T08:51:54;96041.84;;;7.48;50.48
21185;BME280;18176;49.502;11.754;2022-12-16T08:56:09;96018.06;;;7.08;51.25
21185;BME280;18176;49.502;11.754;2022-12-16T09:00:22;96055.34;;;7.51;50.30
21185;BME280;18176;49.502;11.754;2022-12-16T09:04:35;96054.63;;;7.67;50.24
21185;BME280;18176;49.502;11.754;2022-12-16T09:08:51;96056.44;;;7.78;49.55
21185;BME280;18176;49.502;11.754;2022-12-16T09:13:12;96069.00;;;8.00;49.48
21185;BME280;18176;49.502;11.754;2022-12-16T09:17:26;96075.13;;;7.77;49.48
21185;BME280;18176;49.502;11.754;2022-12-16T09:21:39;96086.00;;;7.80;49.27
21185;BME280;18176;49.502;11.754;2022-12-16T09:25:51;96092.78;;;7.88;49.38
21185;BME280;18176;49.502;11.754;2022-12-16T09:30:09;96102.34;;;7.54;49.46
21185;BME280;18176;49.502;11.754;2022-12-16T09:34:22;96100.16;;;7.51;49.89
21185;BME280;18176;49.502;11.754;2022-12-16T09:38:34;96078.28;;;7.39;49.95
21185;BME280;18176;49.502;11.754;2022-12-16T09:42:53;96077.72;;;7.26;50.02
21185;BME280;18176;49.502;11.754;2022-12-16T09:47:24;96108.53;;;7.48;49.81
21185;BME280;18176;49.502;11.754;2022-12-16T09:51:41;96115.78;;;7.41;50.12
21185;BME280;18176;49.502;11.754;2022-12-16T09:55:56;96098.78;;;7.37;49.67
21185;BME280;18176;49.502;11.754;2022-12-16T10:00:20;96109.81;;;7.46;49.39
21185;BME280;18176;49.502;11.754;2022-12-16T10:04:36;96082.66;;;7.22;49.26
21185;BME280;18176;49.502;11.754;2022-12-16T10:09:01;96094.69;;;7.18;49.13
21185;BME280;18176;49.502;11.754;2022-12-16T10:13:25;96132.13;;;7.20;49.26
21185;BME280;18176;49.502;11.754;2022-12-16T10:17:45;96125.72;;;7.39;48.94
21185;BME280;18176;49.502;11.754;2022-12-16T10:22:08;96125.25;;;7.42;48.50
21185;BME280;18176;49.502;11.754;2022-12-16T10:26:35;96133.84;;;7.38;48.29
21185;BME280;18176;49.502;11.754;2022-12-16T10:30:53;96127.09;;;7.30;48.39
21185;BME280;18176;49.502;11.754;2022-12-16T10:35:20;96101.38;;;6.91;48.27
21185;BME280;18176;49.502;11.754;2022-12-16T10:39:40;96121.94;;;7.24;48.32
21185;BME280;18176;49.502;11.754;2022-12-16T10:43:56;96112.91;;;7.31;47.95
21185;BME280;18176;49.502;11.754;2022-12-16T10:48:10;96144.84;;;7.23;48.73
21185;BME280;18176;49.502;11.754;2022-12-16T10:52:31;96129.84;;;7.35;48.57
21185;BME280;18176;49.502;11.754;2022-12-16T10:56:57;96146.72;;;7.57;47.76
21185;BME280;18176;49.502;11.754;2022-12-16T11:01:22;96162.41;;;7.75;47.44
21185;BME280;18176;49.502;11.754;2022-12-16T11:05:35;96165.81;;;7.88;47.70
21185;BME280;18176;49.502;11.754;2022-12-16T11:09:48;96158.50;;;7.66;47.97
21185;BME280;18176;49.502;11.754;2022-12-16T11:14:22;96168.13;;;7.72;48.03
21185;BME280;18176;49.502;11.754;2022-12-16T11:18:48;96093.84;;;7.64;47.54
21185;BME280;18176;49.502;11.754;2022-12-16T11:23:14;96149.28;;;7.80;47.77
21185;BME280;18176;49.502;11.754;2022-12-16T11:27:28;96161.16;;;8.18;47.36
21185;BME280;18176;49.502;11.754;2022-12-16T11:31:43;96160.97;;;8.08;47.32
21185;BME280;18176;49.502;11.754;2022-12-16T11:36:10;96163.00;;;8.29;46.93
21185;BME280;18176;49.502;11.754;2022-12-16T11:40:26;96170.03;;;8.63;46.52
21185;BME280;18176;49.502;11.754;2022-12-16T11:44:44;96161.91;;;8.81;46.11
21185;BME280;18176;49.502;11.754;2022-12-16T11:49:14;96137.56;;;8.79;45.35
21185;BME280;18176;49.502;11.754;2022-12-16T11:53:34;96155.66;;;8.87;45.52
21185;BME280;18176;49.502;11.754;2022-12-16T11:58:13;96165.31;;;9.43;45.43
21185;BME280;18176;49.502;11.754;2022-12-16T12:02:33;96167.88;;;9.55;44.62
21185;BME280;18176;49.502;11.754;2022-12-16T12:07:05;96146.66;;;9.50;44.83
21185;BME280;18176;49.502;11.754;2022-12-16T12:11:27;96140.94;;;9.58;44.67
21185;BME280;18176;49.502;11.754;2022-12-16T12:15:53;96179.41;;;9.49;44.51
21185;BME280;18176;49.502;11.754;2022-12-16T12:20:30;96142.94;;;9.01;45.25
21185;BME280;18176;49.502;11.754;2022-12-16T12:24:58;96166.09;;;9.10;45.69
21185;BME280;18176;49.502;11.754;2022-12-16T12:29:28;96197.63;;;9.00;45.65
21185;BME280;18176;49.502;11.754;2022-12-16T12:33:55;96112.59;;;8.70;45.57
21185;BME280;18176;49.502;11.754;2022-12-16T12:38:18;96199.22;;;9.30;45.27
21185;BME280;18176;49.502;11.754;2022-12-16T12:42:44;96190.56;;;9.51;45.26
21185;BME280;18176;49.502;11.754;2022-12-16T12:47:01;96212.13;;;9.76;44.92
21185;BME280;18176;49.502;11.754;2022-12-16T12:51:24;96207.59;;;9.76;44.50
21185;BME280;18176;49.502;11.754;2022-12-16T12:55:43;96179.66;;;9.64;44.77
21185;BME280;18176;49.502;11.754;2022-12-16T13:00:14;96205.13;;;9.53;44.70
21185;BME280;18176;49.502;11.754;2022-12-16T13:04:35;96227.19;;;9.59;45.11
21185;BME280;18176;49.502;11.754;2022-12-16T13:08:56;96232.75;;;9.29;45.57
21185;BME280;18176;49.502;11.754;2022-12-16T13:13:32;96244.91;;;9.13;46.01
21185;BME280;18176;49.502;11.754;2022-12-16T13:18:33;96245.38;;;9.10;46.14
21185;BME280;18176;49.502;11.754;2022-12-16T13:22:46;96253.41;;;9.15;46.16
21185;BME280;18176;49.502;11.754;2022-12-16T13:27:00;96239.25;;;8.65;46.76
21185;BME280;18176;49.502;11.754;2022-12-16T13:31:13;96225.19;;;8.36;47.27
21185;BME280;18176;49.502;11.754;2022-12-16T13:35:29;96263.63;;;8.44;47.60
21185;BME280;18176;49.502;11.754;2022-12-16T13:39:46;96254.97;;;8.60;47.15
21185;BME280;18176;49.502;11.754;2022-12-16T13:44:11;96268.56;;;8.29;47.59
21185;BME280;18176;49.502;11.754;2022-12-16T13:48:39;96270.16;;;8.07;47.67
21185;BME280;18176;49.502;11.754;2022-12-16T13:52:58;96269.81;;;7.80;48.06
21185;BME280;18176;49.502;11.754;2022-12-16T13:57:17;96295.72;;;7.95;47.75
21185;BME280;18176;49.502;11.754;2022-12-16T14:01:40;96302.63;;;7.96;47.67
21185;BME280;18176;49.502;11.754;2022-12-16T14:06:03;96303.41;;;7.73;47.70
21185;BME280;18176;49.502;11.754;2022-12-16T14:10:29;96272.09;;;7.65;47.74
21185;BME280;18176;49.502;11.754;2022-12-16T14:14:50;96330.50;;;7.92;47.86
21185;BME280;18176;49.502;11.754;2022-12-16T14:19:28;96322.91;;;7.84;47.99
21185;BME280;18176;49.502;11.754;2022-12-16T14:23:48;96331.09;;;7.52;48.17
21185;BME280;18176;49.502;11.754;2022-12-16T14:28:21;96347.66;;;7.12;48.84
21185;BME280;18176;49.502;11.754;2022-12-16T14:32:34;96344.78;;;7.31;48.10
21185;BME280;18176;49.502;11.754;2022-12-16T14:36:47;96362.09;;;7.09;47.84
21185;BME280;18176;49.502;11.754;2022-12-16T14:41:00;96344.97;;;6.82;48.16
21185;BME280;18176;49.502;11.754;2022-12-16T14:45:28;96373.22;;;6.93;48.00
21185;BME280;18176;49.502;11.754;2022-12-16T14:49:50;96376.28;;;6.90;47.86
21185;BME280;18176;49.502;11.754;2022-12-16T14:54:23;96384.47;;;6.64;48.15
21185;BME280;18176;49.502;11.754;2022-12-16T14:58:36;96383.13;;;6.36;48.31
21185;BME280;18176;49.502;11.754;2022-12-16T15:02:55;96390.75;;;6.45;48.39
21185;BME280;18176;49.502;11.754;2022-12-16T15:07:14;96390.69;;;6.26;48.71
21185;BME280;18176;49.502;11.754;2022-12-16T15:11:28;96398.81;;;6.00;48.78
21185;BME280;18176;49.502;11.754;2022-12-16T15:15:44;96381.16;;;6.07;48.68
21185;BME280;18176;49.502;11.754;2022-12-16T15:20:01;96411.66;;;6.08;48.92
21185;BME280;18176;49.502;11.754;2022-12-16T15:24:18;96419.31;;;6.16;48.87
21185;BME280;18176;49.502;11.754;2022-12-16T15:28:44;96422.19;;;6.08;48.96
21185;BME280;18176;49.502;11.754;2022-12-16T15:32:57;96427.63;;;6.13;49.04
21185;BME280;18176;49.502;11.754;2022-12-16T15:37:24;96403.97;;;5.82;49.24
21185;BME280;18176;49.502;11.754;2022-12-16T15:41:46;96442.47;;;6.01;49.23
21185;BME280;18176;49.502;11.754;2022-12-16T15:45:59;96424.47;;;5.67;49.16
21185;BME280;18176;49.502;11.754;2022-12-16T15:50:13;96458.75;;;5.85;49.15
21185;BME280;18176;49.502;11.754;2022-12-16T15:54:29;96426.22;;;5.42;49.26
21185;BME280;18176;49.502;11.754;2022-12-16T15:58:42;96473.31;;;5.81;49.48
21185;BME280;18176;49.502;11.754;2022-12-16T16:02:54;96421.75;;;5.49;49.29
21185;BME280;18176;49.502;11.754;2022-12-16T16:07:15;96486.66;;;5.86;49.38
21185;BME280;18176;49.502;11.754;2022-12-16T16:11:31;96464.56;;;5.56;49.25
21185;BME280;18176;49.502;11.754;2022-12-16T16:15:43;96485.13;;;5.65;49.77
21185;BME280;18176;49.502;11.754;2022-12-16T16:20:02;96509.00;;;5.64;49.61
21185;BME280;18176;49.502;11.754;2022-12-16T16:24:16;96479.97;;;5.39;49.42
21185;BME280;18176;49.502;11.754;2022-12-16T16:28:31;96512.66;;;5.56;49.34
21185;BME280;18176;49.502;11.754;2022-12-16T16:32:46;96522.69;;;5.73;49.05
21185;BME280;18176;49.502;11.754;2022-12-16T16:36:59;96474.59;;;5.21;49.51
21185;BME280;18176;49.502;11.754;2022-12-16T16:41:14;96536.78;;;5.40;49.63
21185;BME280;18176;49.502;11.754;2022-12-16T16:45:29;96549.88;;;5.47;49.77
21185;BME280;18176;49.502;11.754;2022-12-16T16:49:45;96528.91;;;5.34;49.86
21185;BME280;18176;49.502;11.754;2022-12-16T16:54:00;96557.16;;;5.45;49.37
21185;BME280;18176;49.502;11.754;2022-12-16T16:58:27;96528.56;;;5.11;49.51
21185;BME280;18176;49.502;11.754;2022-12-16T17:02:42;96562.00;;;5.41;49.42
21185;BME280;18176;49.502;11.754;2022-12-16T17:06:58;96537.28;;;4.91;49.87
21185;BME280;18176;49.502;11.754;2022-12-16T17:11:18;96588.34;;;5.22;49.76
21185;BME280;18176;49.502;11.754;2022-12-16T17:15:35;96590.34;;;5.07;49.95
21185;BME280;18176;49.502;11.754;2022-12-16T17:19:52;96589.97;;;4.90;50.02
21185;BME280;18176;49.502;11.754;2022-12-16T17:24:05;96572.63;;;4.76;50.27
21185;BME280;18176;49.502;11.754;2022-12-16T17:28:18;96572.22;;;4.85;49.84
21185;BME280;18176;49.502;11.754;2022-12-16T17:32:31;96534.66;;;4.39;49.93
21185;BME280;18176;49.502;11.754;2022-12-16T17:36:47;96614.22;;;4.98;49.45
21185;BME280;18176;49.502;11.754;2022-12-16T17:40:59;96618.22;;;4.75;49.90
21185;BME280;18176;49.502;11.754;2022-12-16T17:45:12;96628.72;;;4.81;49.96
21185;BME280;18176;49.502;11.754;2022-12-16T17:49:25;96617.22;;;4.76;49.99
21185;BME280;18176;49.502;11.754;2022-12-16T17:53:40;96615.38;;;4.70;49.58
21185;BME280;18176;49.502;11.754;2022-12-16T17:57:59;96631.97;;;4.83;49.52
21185;BME280;18176;49.502;11.754;2022-12-16T18:02:12;96629.75;;;4.67;49.96
21185;BME280;18176;49.502;11.754;2022-12-16T18:06:26;96640.03;;;4.75;49.59
21185;BME280;18176;49.502;11.754;2022-12-16T18:10:42;96662.66;;;4.76;49.49
21185;BME280;18176;49.502;11.754;2022-12-16T18:14:55;96655.78;;;4.75;49.35
21185;BME280;18176;49.502;11.754;2022-12-16T18:19:11;96641.25;;;4.73;49.13
21185;BME280;18176;49.502;11.754;2022-12-16T18:23:30;96660.81;;;4.77;49.23
21185;BME280;18176;49.502;11.754;2022-12-16T18:27:48;96679.63;;;4.80;48.96
21185;BME280;18176;49.502;11.754;2022-12-16T18:32:03;96666.66;;;4.66;48.64
21185;BME280;18176;49.502;11.754;2022-12-16T18:36:17;96687.28;;;4.75;48.65
21185;BME280;18176;49.502;11.754;2022-12-16T18:40:31;96604.75;;;3.98;48.97
21185;BME280;18176;49.502;11.754;2022-12-16T18:44:48;96697.94;;;4.61;48.91
21185;BME280;18176;49.502;11.754;2022-12-16T18:49:02;96697.09;;;4.47;48.83
21185;BME280;18176;49.502;11.754;2022-12-16T18:53:15;96671.00;;;4.26;49.00
21185;BME280;18176;49.502;11.754;2022-12-16T18:57:28;96696.94;;;4.55;49.21
21185;BME280;18176;49.502;11.754;2022-12-16T19:01:43;96719.13;;;4.59;49.18
21185;BME280;18176;49.502;11.754;2022-12-16T19:05:56;96719.69;;;4.42;49.26
21185;BME280;18176;49.502;11.754;2022-12-16T19:10:09;96718.69;;;4.49;49.02
21185;BME280;18176;49.502;11.754;2022-12-16T19:14:22;96719.13;;;4.59;48.87
21185;BME280;18176;49.502;11.754;2022-12-16T19:18:37;96709.59;;;4.45;48.96
21185;BME280;18176;49.502;11.754;2022-12-16T19:22:51;96729.50;;;4.26;49.03
21185;BME280;18176;49.502;11.754;2022-12-16T19:27:05;96740.84;;;4.40;48.98
21185;BME280;18176;49.502;11.754;2022-12-16T19:31:18;96755.22;;;4.44;48.75
21185;BME280;18176;49.502;11.754;2022-12-16T19:35:33;96760.25;;;4.05;48.85
21185;BME280;18176;49.502;11.754;2022-12-16T19:39:46;96762.75;;;4.19;48.96
21185;BME280;18176;49.502;11.754;2022-12-16T19:44:00;96747.53;;;4.02;48.90
21185;BME280;18176;49.502;11.754;2022-12-16T19:48:13;96771.19;;;4.15;48.79
21185;BME280;18176;49.502;11.754;2022-12-16T19:52:28;96759.88;;;3.80;49.12
21185;BME280;18176;49.502;11.754;2022-12-16T19:56:41;96766.16;;;4.13;48.82
21185;BME280;18176;49.502;11.754;2022-12-16T20:00:56;96765.34;;;4.13;48.60
21185;BME280;18176;49.502;11.754;2022-12-16T20:05:09;96763.19;;;3.89;49.00
21185;BME280;18176;49.502;11.754;2022-12-16T20:09:24;96802.03;;;4.13;49.35
21185;BME280;18176;49.502;11.754;2022-12-16T20:13:37;96806.28;;;4.14;49.41
21185;BME280;18176;49.502;11.754;2022-12-16T20:17:52;96795.56;;;4.09;49.52
21185;BME280;18176;49.502;11.754;2022-12-16T20:22:11;96818.00;;;4.18;49.34
21185;BME280;18176;49.502;11.754;2022-12-16T20:26:26;96832.19;;;4.23;49.33
21185;BME280;18176;49.502;11.754;2022-12-16T20:30:39;96833.50;;;4.13;49.45
21185;BME280;18176;49.502;11.754;2022-12-16T20:34:54;96823.47;;;4.16;49.12
21185;BME280;18176;49.502;11.754;2022-12-16T20:39:08;96827.44;;;4.12;49.24
21185;BME280;18176;49.502;11.754;2022-12-16T20:43:24;96844.13;;;4.33;48.28
21185;BME280;18176;49.502;11.754;2022-12-16T20:47:37;96851.31;;;4.24;48.49
21185;BME280;18176;49.502;11.754;2022-12-16T20:52:03;96860.03;;;4.31;48.13
21185;BME280;18176;49.502;11.754;2022-12-16T20:56:31;96869.91;;;4.29;48.20
21185;BME280;18176;49.502;11.754;2022-12-16T21:00:50;96873.97;;;4.32;48.05
21185;BME280;18176;49.502;11.754;2022-12-16T21:05:04;96858.44;;;4.02;48.39
21185;BME280;18176;49.502;11.754;2022-12-16T21:09:17;96885.56;;;4.16;48.56
21185;BME280;18176;49.502;11.754;2022-12-16T21:13:29;96893.72;;;4.28;47.75
21185;BME280;18176;49.502;11.754;2022-12-16T21:18:14;96883.56;;;4.18;47.89
21185;BME280;18176;49.502;11.754;2022-12-16T21:22:26;96903.47;;;4.12;47.92
21185;BME280;18176;49.502;11.754;2022-12-16T21:26:39;96918.16;;;4.07;48.05
21185;BME280;18176;49.502;11.754;2022-12-16T21:30:52;96915.41;;;4.15;48.25
21185;BME280;18176;49.502;11.754;2022-12-16T21:35:10;96912.78;;;4.15;47.91
21185;BME280;18176;49.502;11.754;2022-12-16T21:39:22;96925.50;;;4.18;47.72
21185;BME280;18176;49.502;11.754;2022-12-16T21:43:35;96921.41;;;4.09;47.85
21185;BME280;18176;49.502;11.754;2022-12-16T21:47:51;96909.91;;;4.10;47.10
21185;BME280;18176;49.502;11.754;2022-12-16T21:52:07;96930.59;;;4.26;47.18
21185;BME280;18176;49.502;11.754;2022-12-16T21:56:19;96953.88;;;4.36;47.16
21185;BME280;18176;49.502;11.754;2022-12-16T22:00:32;96949.84;;;4.33;47.19
21185;BME280;18176;49.502;11.754;2022-12-16T22:04:49;96964.69;;;4.26;47.26
21185;BME280;18176;49.502;11.754;2022-12-16T22:09:05;96923.97;;;4.02;47.32
21185;BME280;18176;49.502;11.754;2022-12-16T22:13:17;96960.59;;;4.17;47.25
21185;BME280;18176;49.502;11.754;2022-12-16T22:17:30;96947.00;;;3.86;47.63
21185;BME280;18176;49.502;11.754;2022-12-16T22:21:46;96979.59;;;4.19;47.52
21185;BME280;18176;49.502;11.754;2022-12-16T22:26:02;96985.09;;;4.03;47.82
21185;BME280;18176;49.502;11.754;2022-12-16T22:30:15;96997.19;;;4.04;47.90